createdAt,value
2023-04-09T00:01:05.443Z,29.28
2023-04-09T00:02:10.593Z,29.54
2023-04-09T00:03:14.598Z,29.52
2023-04-09T00:04:17.308Z,29.02
2023-04-09T00:05:21.348Z,28.93
2023-04-09T00:06:23.977Z,29.20
2023-04-09T00:07:28.316Z,29.17
2023-04-09T00:08:30.939Z,29.25
2023-04-09T00:09:34.521Z,29.17
2023-04-09T00:10:37.057Z,29.01
2023-04-09T00:11:40.869Z,29.19
2023-04-09T00:12:43.491Z,28.97
2023-04-09T00:13:47.061Z,28.91
2023-04-09T00:14:49.606Z,29.04
2023-04-09T00:15:53.432Z,28.90
2023-04-09T00:16:57.295Z,29.05
2023-04-09T00:18:01.541Z,29.04
2023-04-09T00:19:04.219Z,29.02
2023-04-09T00:20:09.330Z,28.93
2023-04-09T00:21:11.888Z,29.18
2023-04-09T00:22:15.806Z,29.19
2023-04-09T00:23:18.379Z,28.91
2023-04-09T00:24:22.285Z,29.06
2023-04-09T00:25:24.971Z,28.92
2023-04-09T00:26:28.798Z,29.22
2023-04-09T00:27:31.132Z,28.95
2023-04-09T00:28:34.848Z,29.05
2023-04-09T00:29:37.179Z,29.17
2023-04-09T00:30:40.839Z,29.17
2023-04-09T00:31:43.694Z,29.22
2023-04-09T00:32:49.103Z,28.94
2023-04-09T00:33:51.803Z,29.23
2023-04-09T00:34:56.031Z,28.97
2023-04-09T00:35:58.619Z,28.87
2023-04-09T00:37:02.553Z,29.06
2023-04-09T00:38:05.282Z,29.03
2023-04-09T00:39:08.933Z,28.92
2023-04-09T00:40:12.077Z,28.89
2023-04-09T00:41:15.749Z,29.13
2023-04-09T00:42:18.322Z,28.88
2023-04-09T00:43:22.492Z,28.90
2023-04-09T00:44:25.343Z,29.16
2023-04-09T00:45:29.166Z,28.91
2023-04-09T00:46:32.964Z,28.76
2023-04-09T00:47:36.983Z,28.84
2023-04-09T00:48:41.295Z,28.85
2023-04-09T00:49:45.202Z,29.18
2023-04-09T00:50:47.854Z,28.88
2023-04-09T00:51:51.581Z,28.92
2023-04-09T00:52:54.329Z,28.90
2023-04-09T00:53:58.139Z,28.74
2023-04-09T00:55:01.339Z,28.84
2023-04-09T00:56:06.713Z,28.89
2023-04-09T00:57:11.442Z,29.02
2023-04-09T00:58:15.658Z,28.74
2023-04-09T00:59:18.647Z,28.84
2023-04-09T01:00:22.360Z,29.03
2023-04-09T01:01:24.643Z,29.13
2023-04-09T01:02:28.937Z,29.03
2023-04-09T01:03:31.975Z,28.92
2023-04-09T01:04:38.500Z,28.93
2023-04-09T01:05:51.296Z,29.04
2023-04-09T01:07:00.731Z,29.11
2023-04-09T01:08:13.220Z,28.94
2023-04-09T01:09:23.318Z,29.20
2023-04-09T01:10:34.448Z,29.31
2023-04-09T01:11:43.998Z,29.18
2023-04-09T01:12:54.662Z,29.09
2023-04-09T01:14:07.153Z,29.13
2023-04-09T01:15:14.154Z,29.04
2023-04-09T01:16:20.498Z,29.51
2023-04-09T01:17:31.503Z,29.61
2023-04-09T01:18:41.862Z,28.96
2023-04-09T01:19:52.853Z,29.38
2023-04-09T01:21:01.138Z,29.14
2023-04-09T01:22:12.155Z,29.16
2023-04-09T01:23:20.118Z,28.95
2023-04-09T01:24:46.335Z,29.29
2023-04-09T01:26:03.530Z,29.17
2023-04-09T01:27:09.274Z,29.09
2023-04-09T01:28:18.814Z,29.26
2023-04-09T01:29:24.326Z,29.33
2023-04-09T01:30:28.896Z,29.31
2023-04-09T01:31:35.905Z,29.44
2023-04-09T01:32:41.054Z,29.55
2023-04-09T01:33:45.843Z,29.48
2023-04-09T01:34:49.098Z,29.50
2023-04-09T01:35:54.347Z,29.29
2023-04-09T01:36:59.250Z,29.37
2023-04-09T01:38:04.450Z,29.34
2023-04-09T01:39:07.644Z,29.23
2023-04-09T01:40:12.438Z,29.35
2023-04-09T01:41:17.784Z,29.34
2023-04-09T01:42:22.362Z,29.12
2023-04-09T01:43:28.024Z,28.98
2023-04-09T01:44:32.262Z,28.81
2023-04-09T01:45:35.289Z,29.22
2023-04-09T01:46:41.095Z,29.12
2023-04-09T01:47:44.065Z,28.98
2023-04-09T01:48:48.208Z,29.11
2023-04-09T01:49:52.199Z,28.90
2023-04-09T01:50:55.746Z,28.71
2023-04-09T01:51:58.514Z,28.93
2023-04-09T01:53:02.940Z,28.67
2023-04-09T01:54:06.022Z,28.56
2023-04-09T01:55:10.376Z,28.49
2023-04-09T01:56:13.234Z,28.38
2023-04-09T01:57:16.859Z,28.43
2023-04-09T01:58:19.650Z,28.39
2023-04-09T01:59:24.756Z,28.44
2023-04-09T02:00:35.829Z,28.50
2023-04-09T02:01:44.764Z,28.32
2023-04-09T02:02:55.663Z,28.62
2023-04-09T02:04:04.228Z,28.80
2023-04-09T02:05:11.033Z,28.75
2023-04-09T02:06:17.819Z,28.74
2023-04-09T02:07:28.714Z,28.79
2023-04-09T02:08:35.919Z,28.90
2023-04-09T02:09:40.925Z,29.15
2023-04-09T02:10:53.384Z,29.33
2023-04-09T02:12:01.150Z,29.45
2023-04-09T02:13:06.394Z,29.57
2023-04-09T02:14:11.538Z,29.58
2023-04-09T02:15:40.722Z,29.30
2023-04-09T02:16:43.804Z,29.69
2023-04-09T02:17:47.651Z,29.53
2023-04-09T02:18:53.804Z,29.45
2023-04-09T02:19:57.890Z,29.91
2023-04-09T02:21:00.840Z,30.39
2023-04-09T02:22:06.418Z,30.29
2023-04-09T02:23:09.203Z,30.26
2023-04-09T02:24:12.792Z,30.40
2023-04-09T02:25:15.931Z,30.60
2023-04-09T02:26:19.568Z,30.51
2023-04-09T02:27:22.209Z,30.63
2023-04-09T02:28:25.951Z,30.36
2023-04-09T02:29:28.222Z,30.54
2023-04-09T02:30:31.701Z,30.05
2023-04-09T02:31:35.732Z,30.33
2023-04-09T02:32:39.464Z,30.07
2023-04-09T02:33:42.707Z,30.31
2023-04-09T02:34:46.281Z,30.08
2023-04-09T02:35:48.897Z,30.59
2023-04-09T02:36:52.508Z,30.30
2023-04-09T02:37:56.205Z,30.26
2023-04-09T02:38:58.788Z,30.24
2023-04-09T02:40:02.410Z,30.14
2023-04-09T02:41:05.177Z,29.93
2023-04-09T02:42:09.194Z,29.97
2023-04-09T02:43:11.737Z,30.02
2023-04-09T02:44:15.478Z,30.13
2023-04-09T02:45:18.351Z,30.23
2023-04-09T02:46:22.074Z,30.35
2023-04-09T02:47:27.381Z,30.31
2023-04-09T02:48:31.116Z,30.40
2023-04-09T02:49:33.942Z,30.50
2023-04-09T02:50:37.857Z,30.79
2023-04-09T02:51:40.407Z,30.92
2023-04-09T02:52:44.075Z,31.06
2023-04-09T02:53:46.735Z,30.85
2023-04-09T02:54:50.479Z,30.60
2023-04-09T02:55:52.733Z,30.33
2023-04-09T02:56:56.624Z,30.63
2023-04-09T02:57:59.221Z,30.67
2023-04-09T02:59:02.938Z,30.68
2023-04-09T03:00:05.843Z,30.89
2023-04-09T03:01:09.502Z,30.48
2023-04-09T03:02:12.004Z,30.38
2023-04-09T03:03:16.921Z,30.41
2023-04-09T03:04:19.534Z,30.21
2023-04-09T03:05:24.288Z,30.24
2023-04-09T03:06:27.023Z,30.06
2023-04-09T03:07:30.700Z,30.08
2023-04-09T03:08:33.154Z,30.09
2023-04-09T03:09:36.931Z,29.88
2023-04-09T03:10:39.100Z,29.68
2023-04-09T03:11:42.712Z,29.86
2023-04-09T03:12:45.629Z,30.24
2023-04-09T03:13:49.248Z,30.08
2023-04-09T03:14:51.788Z,30.03
2023-04-09T03:15:55.644Z,29.93
2023-04-09T03:16:58.438Z,29.93
2023-04-09T03:18:02.212Z,29.63
2023-04-09T03:19:06.350Z,29.60
2023-04-09T03:20:10.546Z,29.65
2023-04-09T03:21:15.134Z,29.54
2023-04-09T03:22:17.787Z,29.83
2023-04-09T03:23:21.422Z,29.87
2023-04-09T03:24:23.972Z,30.36
2023-04-09T03:25:27.714Z,31.25
2023-04-09T03:26:30.171Z,32.14
2023-04-09T03:27:34.544Z,32.77
2023-04-09T03:28:37.093Z,32.94
2023-04-09T03:29:40.895Z,33.29
2023-04-09T03:30:43.452Z,33.52
2023-04-09T03:31:47.060Z,34.06
2023-04-09T03:32:49.683Z,34.25
2023-04-09T03:33:53.375Z,34.28
2023-04-09T03:34:57.077Z,34.32
2023-04-09T03:36:00.711Z,34.26
2023-04-09T03:37:04.460Z,34.80
2023-04-09T03:38:06.955Z,34.62
2023-04-09T03:39:10.729Z,34.78
2023-04-09T03:40:13.436Z,35.19
2023-04-09T03:41:17.395Z,35.32
2023-04-09T03:42:20.058Z,35.21
2023-04-09T03:43:23.720Z,35.06
2023-04-09T03:44:26.196Z,35.09
2023-04-09T03:45:31.288Z,34.90
2023-04-09T03:46:34.012Z,34.63
2023-04-09T03:47:37.773Z,34.39
2023-04-09T03:48:40.449Z,34.32
2023-04-09T03:49:44.161Z,34.39
2023-04-09T03:50:47.903Z,34.92
2023-04-09T03:51:51.614Z,34.70
2023-04-09T03:52:53.807Z,34.64
2023-04-09T03:53:57.550Z,34.89
2023-04-09T03:55:00.180Z,34.68
2023-04-09T03:56:04.290Z,34.96
2023-04-09T03:57:06.881Z,34.92
2023-04-09T03:58:11.006Z,35.10
2023-04-09T03:59:13.514Z,34.92
2023-04-09T04:00:17.495Z,34.61
2023-04-09T04:01:20.127Z,34.41
2023-04-09T04:02:23.808Z,34.35
2023-04-09T04:03:26.698Z,34.05
2023-04-09T04:04:30.398Z,34.02
2023-04-09T04:05:32.702Z,33.89
2023-04-09T04:06:37.845Z,33.93
2023-04-09T04:07:40.522Z,33.68
2023-04-09T04:08:45.072Z,33.84
2023-04-09T04:09:47.634Z,34.31
2023-04-09T04:10:51.222Z,34.16
2023-04-09T04:11:55.942Z,34.20
2023-04-09T04:12:59.653Z,34.12
2023-04-09T04:14:02.373Z,34.73
2023-04-09T04:15:06.826Z,34.20
2023-04-09T04:16:10.457Z,33.76
2023-04-09T04:17:14.274Z,33.88
2023-04-09T04:18:16.441Z,33.45
2023-04-09T04:19:20.088Z,33.26
2023-04-09T04:20:22.313Z,33.10
2023-04-09T04:21:25.903Z,32.88
2023-04-09T04:22:29.973Z,32.90
2023-04-09T04:23:35.376Z,32.51
2023-04-09T04:24:38.069Z,32.70
2023-04-09T04:25:43.430Z,32.34
2023-04-09T04:26:46.013Z,32.42
2023-04-09T04:27:49.579Z,32.62
2023-04-09T04:28:52.336Z,32.46
2023-04-09T04:29:58.859Z,32.58
2023-04-09T04:31:01.578Z,32.42
2023-04-09T04:32:05.424Z,32.49
2023-04-09T04:33:08.047Z,32.32
2023-04-09T04:34:11.749Z,32.47
2023-04-09T04:35:14.646Z,32.65
2023-04-09T04:36:18.413Z,32.34
2023-04-09T04:37:21.006Z,32.58
2023-04-09T04:38:26.708Z,32.34
2023-04-09T04:39:31.445Z,32.10
2023-04-09T04:40:35.209Z,32.31
2023-04-09T04:41:38.807Z,32.95
2023-04-09T04:42:41.311Z,32.22
2023-04-09T04:43:45.096Z,31.53
2023-04-09T04:44:47.223Z,31.83
2023-04-09T04:45:53.091Z,31.38
2023-04-09T04:46:56.389Z,31.79
2023-04-09T04:48:00.085Z,31.29
2023-04-09T04:49:02.361Z,31.47
2023-04-09T04:50:07.161Z,32.27
2023-04-09T04:51:09.814Z,32.14
2023-04-09T04:52:13.713Z,31.93
2023-04-09T04:53:16.628Z,31.85
2023-04-09T04:54:21.893Z,31.73
2023-04-09T04:55:24.477Z,31.58
2023-04-09T04:56:28.219Z,31.53
2023-04-09T04:57:30.852Z,30.91
2023-04-09T04:58:34.609Z,30.85
2023-04-09T04:59:38.970Z,29.55
2023-04-09T05:00:42.584Z,27.22
2023-04-09T05:01:44.879Z,26.93
2023-04-09T05:02:48.712Z,26.24
2023-04-09T05:03:51.420Z,26.05
2023-04-09T05:04:55.142Z,26.64
2023-04-09T05:05:58.451Z,26.24
2023-04-09T05:07:01.466Z,26.68
2023-04-09T05:08:05.409Z,26.95
2023-04-09T05:09:07.887Z,26.54
2023-04-09T05:10:13.093Z,26.51
2023-04-09T05:11:17.205Z,26.23
2023-04-09T05:12:19.855Z,27.01
2023-04-09T05:13:23.614Z,27.07
2023-04-09T05:14:26.468Z,26.78
2023-04-09T05:15:30.148Z,26.64
2023-04-09T05:16:33.280Z,27.75
2023-04-09T05:17:37.240Z,27.80
2023-04-09T05:18:39.827Z,27.30
2023-04-09T05:19:43.474Z,27.25
2023-04-09T05:20:46.741Z,27.39
2023-04-09T05:21:49.271Z,27.46
2023-04-09T05:22:52.960Z,27.19
2023-04-09T05:23:55.138Z,26.96
2023-04-09T05:24:58.844Z,27.05
2023-04-09T05:26:03.601Z,27.09
2023-04-09T05:27:06.129Z,26.78
2023-04-09T05:28:11.618Z,26.86
2023-04-09T05:29:15.289Z,26.74
2023-04-09T05:30:18.153Z,26.79
2023-04-09T05:31:21.629Z,26.64
2023-04-09T05:32:24.266Z,26.41
2023-04-09T05:33:27.977Z,26.72
2023-04-09T05:34:30.505Z,26.33
2023-04-09T05:35:34.041Z,26.52
2023-04-09T05:36:36.656Z,26.37
2023-04-09T05:37:40.309Z,26.52
2023-04-09T05:38:43.009Z,26.60
2023-04-09T05:39:46.587Z,26.15
2023-04-09T05:40:49.368Z,26.15
2023-04-09T05:41:54.428Z,26.36
2023-04-09T05:42:57.235Z,25.98
2023-04-09T05:44:01.118Z,26.22
2023-04-09T05:45:04.060Z,26.39
2023-04-09T05:46:07.928Z,26.26
2023-04-09T05:47:10.562Z,25.78
2023-04-09T05:48:14.298Z,25.53
2023-04-09T05:49:16.991Z,25.39
2023-04-09T05:50:20.741Z,26.18
2023-04-09T05:51:23.490Z,26.27
2023-04-09T05:52:27.090Z,26.40
2023-04-09T05:53:31.619Z,26.27
2023-04-09T05:54:37.164Z,26.31
2023-04-09T05:55:41.044Z,26.46
2023-04-09T05:56:43.868Z,26.54
2023-04-09T05:57:49.051Z,26.66
2023-04-09T05:58:52.221Z,26.26
2023-04-09T05:59:55.968Z,26.69
2023-04-09T06:00:58.146Z,26.97
2023-04-09T06:02:01.990Z,27.30
2023-04-09T06:03:05.328Z,26.71
2023-04-09T06:04:09.430Z,26.92
2023-04-09T06:05:12.258Z,27.10
2023-04-09T06:06:16.044Z,27.70
2023-04-09T06:07:18.624Z,27.42
2023-04-09T06:08:22.263Z,27.86
2023-04-09T06:09:24.501Z,27.52
2023-04-09T06:10:29.133Z,27.52
2023-04-09T06:11:32.611Z,28.29
2023-04-09T06:12:36.755Z,28.32
2023-04-09T06:13:41.754Z,28.22
2023-04-09T06:14:44.268Z,27.88
2023-04-09T06:15:48.561Z,28.01
2023-04-09T06:16:51.130Z,27.82
2023-04-09T06:17:56.545Z,28.07
2023-04-09T06:19:01.183Z,27.38
2023-04-09T06:20:05.426Z,27.75
2023-04-09T06:21:10.349Z,26.76
2023-04-09T06:22:12.997Z,27.29
2023-04-09T06:23:16.580Z,27.54
2023-04-09T06:24:18.897Z,27.02
2023-04-09T06:25:22.770Z,26.80
2023-04-09T06:26:25.509Z,25.08
2023-04-09T06:27:29.213Z,24.84
2023-04-09T06:28:31.823Z,25.22
2023-04-09T06:29:36.761Z,24.72
2023-04-09T06:30:40.385Z,25.05
2023-04-09T06:31:44.117Z,25.74
2023-04-09T06:32:54.573Z,25.86
2023-04-09T06:33:59.033Z,25.97
2023-04-09T06:35:01.553Z,25.74
2023-04-09T06:36:05.580Z,25.51
2023-04-09T06:37:09.330Z,25.25
2023-04-09T06:38:11.520Z,25.11
2023-04-09T06:39:15.190Z,25.21
2023-04-09T06:40:17.523Z,24.91
2023-04-09T06:41:22.813Z,24.78
2023-04-09T06:42:26.878Z,24.13
2023-04-09T06:43:30.910Z,24.52
2023-04-09T06:44:36.804Z,23.45
2023-04-09T06:45:41.174Z,23.22
2023-04-09T06:46:44.868Z,22.34
2023-04-09T06:47:47.686Z,22.37
2023-04-09T06:48:51.656Z,22.47
2023-04-09T06:49:54.116Z,22.54
2023-04-09T06:50:57.707Z,22.52
2023-04-09T06:52:00.288Z,21.81
2023-04-09T06:53:04.303Z,21.63
2023-04-09T06:54:06.938Z,21.92
2023-04-09T06:55:11.733Z,22.56
2023-04-09T06:56:14.652Z,22.07
2023-04-09T06:57:18.171Z,22.09
2023-04-09T06:58:22.636Z,22.38
2023-04-09T06:59:25.135Z,21.83
2023-04-09T07:00:30.396Z,21.73
2023-04-09T07:01:33.606Z,21.87
2023-04-09T07:02:37.665Z,21.48
2023-04-09T07:03:42.089Z,21.42
2023-04-09T07:04:44.883Z,21.16
2023-04-09T07:05:48.724Z,21.22
2023-04-09T07:06:51.895Z,20.90
2023-04-09T07:07:55.744Z,21.67
2023-04-09T07:08:58.573Z,21.77
2023-04-09T07:10:02.921Z,20.59
2023-04-09T07:11:07.301Z,20.43
2023-04-09T07:12:09.470Z,20.59
2023-04-09T07:13:13.118Z,20.86
2023-04-09T07:14:15.862Z,20.41
2023-04-09T07:15:19.493Z,20.64
2023-04-09T07:16:23.727Z,21.12
2023-04-09T07:17:27.618Z,21.05
2023-04-09T07:18:31.524Z,20.98
2023-04-09T07:19:34.857Z,21.16
2023-04-09T07:20:37.337Z,20.77
2023-04-09T07:21:41.165Z,20.89
2023-04-09T07:22:43.658Z,20.67
2023-04-09T07:23:48.278Z,20.98
2023-04-09T07:24:54.442Z,20.54
2023-04-09T07:25:58.248Z,20.36
2023-04-09T07:27:04.006Z,20.00
2023-04-09T07:28:07.744Z,20.20
2023-04-09T07:29:11.784Z,20.79
2023-04-09T07:30:14.656Z,20.32
2023-04-09T07:31:18.539Z,19.76
2023-04-09T07:32:23.834Z,20.51
2023-04-09T07:33:26.563Z,20.15
2023-04-09T07:34:30.104Z,20.32
2023-04-09T07:35:35.043Z,20.53
2023-04-09T07:36:38.946Z,20.61
2023-04-09T07:37:42.601Z,20.56
2023-04-09T07:38:45.198Z,19.99
2023-04-09T07:39:49.022Z,20.21
2023-04-09T07:40:52.003Z,20.41
2023-04-09T07:41:56.637Z,20.51
2023-04-09T07:43:00.251Z,20.43
2023-04-09T07:44:04.010Z,20.01
2023-04-09T07:45:08.952Z,20.90
2023-04-09T07:46:12.855Z,20.65
2023-04-09T07:47:15.898Z,20.32
2023-04-09T07:48:21.186Z,20.40
2023-04-09T07:49:23.768Z,20.50
2023-04-09T07:50:27.519Z,20.68
2023-04-09T07:51:30.272Z,20.47
2023-04-09T07:52:34.109Z,20.06
2023-04-09T07:53:37.823Z,19.77
2023-04-09T07:54:41.418Z,19.77
2023-04-09T07:56:02.364Z,19.72
2023-04-09T07:57:06.270Z,20.20
2023-04-09T07:58:09.823Z,20.20
2023-04-09T07:59:14.007Z,20.88
2023-04-09T08:00:18.958Z,20.16
2023-04-09T08:01:24.754Z,20.13
2023-04-09T08:02:28.960Z,20.30
2023-04-09T08:03:33.388Z,20.31
2023-04-09T08:04:37.362Z,20.71
2023-04-09T08:05:40.574Z,20.56
2023-04-09T08:06:47.068Z,20.95
2023-04-09T08:07:53.661Z,20.18
2023-04-09T08:08:56.247Z,19.74
2023-04-09T08:09:59.969Z,20.10
2023-04-09T08:11:03.310Z,20.90
2023-04-09T08:12:05.978Z,20.22
2023-04-09T08:13:11.460Z,20.48
2023-04-09T08:14:15.888Z,20.69
2023-04-09T08:15:19.749Z,20.74
2023-04-09T08:16:23.824Z,20.43
2023-04-09T08:17:27.705Z,20.32
2023-04-09T08:18:30.983Z,20.14
2023-04-09T08:19:36.367Z,20.44
2023-04-09T08:20:45.326Z,20.67
2023-04-09T08:21:49.948Z,20.37
2023-04-09T08:22:52.445Z,20.08
2023-04-09T08:23:59.902Z,20.09
2023-04-09T08:25:03.644Z,20.46
2023-04-09T08:26:06.287Z,20.80
2023-04-09T08:27:10.043Z,20.37
2023-04-09T08:28:13.726Z,20.72
2023-04-09T08:29:15.998Z,20.20
2023-04-09T08:30:19.721Z,20.10
2023-04-09T08:31:22.497Z,20.25
2023-04-09T08:32:26.353Z,20.47
2023-04-09T08:33:30.510Z,20.37
2023-04-09T08:34:34.511Z,20.24
2023-04-09T08:35:38.447Z,20.38
2023-04-09T08:36:41.153Z,20.13
2023-04-09T08:37:45.126Z,20.72
2023-04-09T08:38:47.911Z,20.67
2023-04-09T08:39:52.264Z,21.37
2023-04-09T08:40:54.811Z,21.02
2023-04-09T08:42:01.961Z,20.83
2023-04-09T08:43:09.102Z,20.46
2023-04-09T08:44:11.753Z,19.99
2023-04-09T08:45:15.790Z,20.01
2023-04-09T08:46:19.012Z,19.58
2023-04-09T08:47:23.110Z,19.90
2023-04-09T08:48:26.013Z,19.95
2023-04-09T08:49:29.766Z,20.20
2023-04-09T08:50:35.289Z,20.26
2023-04-09T08:51:37.998Z,20.17
2023-04-09T08:52:42.390Z,19.87
2023-04-09T08:53:47.800Z,19.81
2023-04-09T08:54:53.147Z,19.51
2023-04-09T08:55:56.025Z,19.42
2023-04-09T08:56:59.621Z,19.44
2023-04-09T08:58:05.274Z,19.47
2023-04-09T08:59:09.012Z,19.44
2023-04-09T09:00:13.777Z,19.47
2023-04-09T09:01:21.916Z,19.68
2023-04-09T09:02:25.689Z,19.83
2023-04-09T09:03:28.504Z,19.77
2023-04-09T09:04:46.736Z,20.54
2023-04-09T09:05:51.974Z,19.37
2023-04-09T09:06:56.697Z,18.99
2023-04-09T09:08:01.948Z,19.38
2023-04-09T09:09:06.747Z,19.56
2023-04-09T09:10:11.101Z,19.58
2023-04-09T09:11:27.156Z,19.69
2023-04-09T09:12:34.028Z,19.72
2023-04-09T09:13:37.818Z,20.23
2023-04-09T09:14:40.449Z,19.86
2023-04-09T09:15:44.318Z,19.31
2023-04-09T09:17:08.523Z,19.07
2023-04-09T09:18:12.632Z,19.58
2023-04-09T09:19:31.693Z,18.95
2023-04-09T09:20:34.377Z,18.40
2023-04-09T09:21:40.723Z,18.36
2023-04-09T09:22:55.045Z,19.00
2023-04-09T09:23:59.481Z,18.61
2023-04-09T09:25:02.072Z,20.04
2023-04-09T09:26:12.836Z,19.53
2023-04-09T09:27:33.230Z,18.82
2023-04-09T09:28:36.503Z,18.88
2023-04-09T09:29:45.162Z,18.90
2023-04-09T09:30:49.122Z,18.53
2023-04-09T09:31:54.789Z,18.59
2023-04-09T09:33:07.848Z,19.28
2023-04-09T09:34:11.636Z,19.56
2023-04-09T09:35:14.377Z,19.98
2023-04-09T09:36:31.746Z,19.94
2023-04-09T09:37:35.812Z,20.27
2023-04-09T09:38:57.334Z,19.68
2023-04-09T09:40:00.677Z,19.67
2023-04-09T09:41:18.857Z,19.97
2023-04-09T09:42:22.754Z,19.78
2023-04-09T09:43:25.356Z,20.16
2023-04-09T09:44:35.475Z,19.90
2023-04-09T09:45:38.344Z,20.05
2023-04-09T09:46:43.685Z,19.85
2023-04-09T09:47:47.521Z,19.30
2023-04-09T09:48:51.636Z,19.94
2023-04-09T09:49:54.820Z,19.65
2023-04-09T09:50:59.102Z,19.24
2023-04-09T09:52:04.623Z,19.37
2023-04-09T09:53:12.045Z,19.26
2023-04-09T09:54:23.691Z,19.67
2023-04-09T09:55:32.456Z,19.46
2023-04-09T09:56:39.697Z,19.70
2023-04-09T09:57:45.260Z,19.30
2023-04-09T09:58:54.451Z,19.25
2023-04-09T10:00:02.282Z,18.73
2023-04-09T10:01:09.543Z,19.02
2023-04-09T10:02:18.949Z,19.39
2023-04-09T10:03:26.950Z,19.19
2023-04-09T10:04:35.279Z,19.62
2023-04-09T10:05:39.336Z,19.42
2023-04-09T10:06:45.341Z,19.06
2023-04-09T10:07:50.178Z,18.80
2023-04-09T10:08:58.640Z,18.80
2023-04-09T10:10:02.912Z,18.56
2023-04-09T10:11:07.966Z,18.54
2023-04-09T10:12:11.423Z,18.68
2023-04-09T10:13:21.957Z,18.83
2023-04-09T10:14:26.690Z,18.54
2023-04-09T10:15:30.096Z,18.48
2023-04-09T10:16:35.099Z,17.79
2023-04-09T10:17:39.107Z,17.72
2023-04-09T10:18:44.184Z,17.71
2023-04-09T10:19:56.261Z,18.01
2023-04-09T10:21:00.152Z,18.05
2023-04-09T10:22:10.024Z,18.18
2023-04-09T10:23:20.189Z,18.04
2023-04-09T10:24:26.071Z,18.57
2023-04-09T10:25:29.021Z,17.67
2023-04-09T10:26:35.904Z,16.92
2023-04-09T10:27:38.554Z,16.83
2023-04-09T10:28:42.681Z,16.98
2023-04-09T10:29:50.027Z,17.22
2023-04-09T10:30:57.793Z,17.23
2023-04-09T10:32:07.154Z,17.14
2023-04-09T10:33:11.551Z,17.14
2023-04-09T10:34:17.386Z,16.93
2023-04-09T10:35:26.049Z,17.00
2023-04-09T10:36:32.950Z,17.22
2023-04-09T10:37:37.491Z,16.87
2023-04-09T10:38:41.780Z,17.01
2023-04-09T10:39:50.147Z,17.18
2023-04-09T10:40:53.628Z,17.24
2023-04-09T10:41:58.427Z,16.84
2023-04-09T10:43:03.264Z,17.60
2023-04-09T10:44:07.700Z,16.92
2023-04-09T10:45:12.344Z,17.33
2023-04-09T10:46:28.175Z,16.42
2023-04-09T10:47:34.889Z,16.71
2023-04-09T10:48:38.640Z,16.83
2023-04-09T10:49:41.401Z,17.08
2023-04-09T10:50:46.044Z,16.56
2023-04-09T10:52:02.140Z,16.50
2023-04-09T10:53:05.498Z,16.86
2023-04-09T10:54:52.884Z,16.36
2023-04-09T10:55:58.192Z,16.51
2023-04-09T10:57:22.366Z,16.22
2023-04-09T10:58:26.231Z,15.48
2023-04-09T10:59:28.728Z,15.27
2023-04-09T11:00:32.486Z,15.32
2023-04-09T11:01:35.271Z,14.57
2023-04-09T11:03:04.889Z,15.08
2023-04-09T11:04:14.739Z,14.91
2023-04-09T11:05:22.387Z,14.88
2023-04-09T11:06:26.678Z,14.52
2023-04-09T11:07:30.779Z,15.07
2023-04-09T11:08:35.426Z,14.56
2023-04-09T11:09:38.672Z,13.76
2023-04-09T11:10:45.403Z,14.25
2023-04-09T11:11:57.772Z,14.21
2023-04-09T11:13:00.866Z,14.20
2023-04-09T11:14:05.104Z,14.27
2023-04-09T11:15:16.688Z,14.26
2023-04-09T11:16:24.700Z,14.44
2023-04-09T11:17:29.023Z,14.27
2023-04-09T11:18:34.816Z,14.11
2023-04-09T11:19:37.577Z,14.17
2023-04-09T11:20:42.293Z,13.91
2023-04-09T11:21:46.453Z,13.93
2023-04-09T11:22:51.503Z,14.03
2023-04-09T11:23:55.590Z,13.81
2023-04-09T11:24:58.199Z,13.92
2023-04-09T11:26:02.314Z,13.75
2023-04-09T11:27:06.351Z,13.49
2023-04-09T11:28:10.119Z,13.46
2023-04-09T11:29:13.541Z,13.39
2023-04-09T11:30:17.238Z,13.44
2023-04-09T11:31:21.180Z,13.20
2023-04-09T11:32:29.149Z,13.19
2023-04-09T11:33:35.498Z,13.29
2023-04-09T11:34:38.543Z,12.88
2023-04-09T11:35:42.349Z,12.81
2023-04-09T11:36:50.866Z,13.21
2023-04-09T11:37:54.596Z,12.92
2023-04-09T11:38:57.277Z,12.70
2023-04-09T11:40:01.134Z,12.72
2023-04-09T11:41:04.799Z,12.46
2023-04-09T11:42:14.181Z,12.69
2023-04-09T11:43:18.336Z,12.46
2023-04-09T11:44:22.267Z,12.33
2023-04-09T11:45:27.943Z,12.35
2023-04-09T11:46:32.360Z,12.86
2023-04-09T11:47:35.861Z,12.46
2023-04-09T11:48:39.278Z,12.36
2023-04-09T11:49:42.422Z,12.22
2023-04-09T11:50:46.107Z,11.87
2023-04-09T11:51:48.765Z,12.23
2023-04-09T11:52:52.767Z,12.18
2023-04-09T11:53:55.300Z,12.60
2023-04-09T11:55:02.594Z,12.24
2023-04-09T11:56:07.476Z,12.25
2023-04-09T11:57:11.437Z,12.09
2023-04-09T11:58:15.250Z,11.93
2023-04-09T11:59:19.347Z,12.14
2023-04-09T12:00:25.087Z,12.46
2023-04-09T12:01:33.459Z,12.31
2023-04-09T12:02:39.031Z,11.21
2023-04-09T12:03:43.557Z,11.99
2023-04-09T12:04:51.253Z,11.51
2023-04-09T12:05:55.054Z,11.44
2023-04-09T12:06:59.038Z,11.61
2023-04-09T12:08:05.200Z,11.87
2023-04-09T12:09:09.624Z,12.13
2023-04-09T12:10:14.095Z,11.90
2023-04-09T12:11:17.893Z,11.75
2023-04-09T12:12:24.866Z,11.84
2023-04-09T12:13:34.743Z,12.10
2023-04-09T12:14:37.414Z,12.22
2023-04-09T12:15:43.736Z,12.36
2023-04-09T12:16:46.615Z,12.35
2023-04-09T12:17:52.306Z,12.88
2023-04-09T12:18:55.980Z,12.96
2023-04-09T12:19:59.364Z,12.68
2023-04-09T12:21:03.241Z,11.41
2023-04-09T12:22:06.265Z,11.25
2023-04-09T12:23:10.807Z,12.03
2023-04-09T12:24:13.456Z,11.32
2023-04-09T12:25:17.580Z,12.04
2023-04-09T12:26:21.328Z,11.98
2023-04-09T12:27:25.263Z,11.91
2023-04-09T12:28:29.556Z,12.04
2023-04-09T12:29:33.674Z,12.37
2023-04-09T12:30:37.654Z,12.16
2023-04-09T12:31:40.468Z,11.90
2023-04-09T12:32:46.149Z,12.15
2023-04-09T12:33:49.750Z,11.52
2023-04-09T12:34:52.075Z,11.83
2023-04-09T12:35:58.458Z,12.35
2023-04-09T12:37:01.439Z,11.83
2023-04-09T12:38:05.861Z,11.91
2023-04-09T12:39:09.170Z,11.94
2023-04-09T12:40:14.402Z,11.62
2023-04-09T12:41:17.239Z,11.38
2023-04-09T12:42:20.794Z,11.79
2023-04-09T12:43:25.542Z,12.31
2023-04-09T12:44:28.075Z,12.57
2023-04-09T12:45:32.764Z,11.90
2023-04-09T12:46:35.653Z,11.42
2023-04-09T12:47:39.978Z,11.39
2023-04-09T12:48:42.655Z,11.80
2023-04-09T12:49:46.949Z,11.90
2023-04-09T12:50:50.764Z,11.74
2023-04-09T12:51:53.436Z,12.04
2023-04-09T12:52:57.068Z,11.70
2023-04-09T12:53:59.768Z,11.88
2023-04-09T12:55:03.595Z,11.77
2023-04-09T12:56:07.426Z,11.64
2023-04-09T12:57:11.240Z,11.61
2023-04-09T12:58:13.893Z,11.14
2023-04-09T12:59:19.123Z,11.62
2023-04-09T13:00:22.866Z,11.48
2023-04-09T13:01:25.506Z,11.43
2023-04-09T13:02:29.587Z,11.35
2023-04-09T13:03:32.721Z,11.44
2023-04-09T13:04:38.324Z,11.87
2023-04-09T13:05:42.072Z,11.70
2023-04-09T13:06:44.646Z,11.60
2023-04-09T13:07:48.367Z,11.81
2023-04-09T13:08:50.884Z,11.88
2023-04-09T13:09:54.465Z,11.98
2023-04-09T13:10:58.177Z,12.22
2023-04-09T13:12:00.657Z,12.15
2023-04-09T13:13:04.699Z,12.33
2023-04-09T13:14:07.214Z,12.64
2023-04-09T13:15:13.196Z,12.86
2023-04-09T13:16:16.383Z,13.05
2023-04-09T13:17:20.038Z,13.04
2023-04-09T13:18:23.721Z,13.48
2023-04-09T13:19:26.347Z,13.25
2023-04-09T13:20:30.750Z,13.81
2023-04-09T13:21:33.540Z,13.98
2023-04-09T13:22:37.587Z,14.14
2023-04-09T13:23:41.394Z,14.42
2023-04-09T13:24:43.871Z,14.61
2023-04-09T13:25:47.497Z,14.55
2023-04-09T13:26:49.666Z,14.68
2023-04-09T13:27:53.385Z,14.66
2023-04-09T13:28:56.188Z,14.38
2023-04-09T13:30:00.109Z,14.15
2023-04-09T13:31:05.786Z,14.75
2023-04-09T13:32:11.303Z,15.03
2023-04-09T13:33:15.200Z,14.21
2023-04-09T13:34:17.812Z,13.97
2023-04-09T13:35:21.658Z,14.25
2023-04-09T13:36:24.726Z,13.52
2023-04-09T13:37:28.556Z,14.00
2023-04-09T13:38:31.354Z,14.18
2023-04-09T13:39:35.047Z,14.09
2023-04-09T13:40:38.384Z,14.16
2023-04-09T13:41:41.086Z,14.83
2023-04-09T13:42:44.934Z,14.84
2023-04-09T13:43:47.555Z,14.78
2023-04-09T13:44:51.361Z,15.08
2023-04-09T13:45:54.304Z,15.26
2023-04-09T13:46:59.544Z,15.25
2023-04-09T13:48:02.763Z,15.67
2023-04-09T13:49:06.444Z,15.44
2023-04-09T13:50:12.241Z,15.88
2023-04-09T13:51:14.849Z,15.89
2023-04-09T13:52:18.640Z,15.93
2023-04-09T13:53:22.128Z,15.96